Impacts METAR Board
IDs:

KMDW - Chicago/Midway Intl, IL, US

Updated at: 0200 UTC 25 Mar 2019
Potential Impact None Slight Moderate High
Time 24/14Z 24/15Z 24/16Z 24/17Z 24/18Z 24/19Z 24/20Z 24/21Z 24/22Z 24/23Z 25/00Z 25/01Z 25/02Z
Temp46 46 48 48 49 50 51 49 48 46 43 39 37
Dewpt33 36 39 42 41 38 34 38 40 42 38 35 34
Altim30.12 30.12 30.13 30.12 30.09 30.07 30.06 30.06 30.06 30.06 30.08 30.10 30.13
VIS10 10 10 10 10 10 10 10 8 7 9 9 10
CIG70 60 60 44 27 48 50 60 60 35 15 18 9
CoverOVCOVCOVCOVCOVCOVCOVCOVCOVCOVCOVCOVCOVC
FltCatVFRVFRVFRVFRMVFRVFRVFRVFRVFRVFRMVFRMVFRIFR
WX-------RA-----RA-RA-RA-RA-----RA
WDir19015011017013012000050203030
WSpd3 3 5 4 4 4 0 0 0 9 14 14 15
WGst-- -- -- -- -- -- -- -- -- -- -- -- --
Raw hourly METARs
KMDW 241353Z 19003KT 10SM BKN070 OVC085 08/01 A3012 RMK AO2 SLP204 T00780006
KMDW 241453Z 15003KT 10SM OVC060 08/02 A3012 RMK AO2 SLP205 T00780022 55001
KMDW 241553Z 11005KT 10SM SCT024 OVC060 09/04 A3013 RMK AO2 SLP207 T00890039
KMDW 241653Z 17004KT 10SM -RA SCT023 OVC044 09/06 A3012 RMK AO2 RAB29 SLP205 P0000 T00890056
KMDW 241753Z 13004KT 10SM BKN027 OVC042 09/05 A3009 RMK AO2 RAE20 SLP195 P0000 60000 T00940050 10094 20067 58009
KMDW 241853Z 12004KT 10SM FEW029 OVC048 10/03 A3007 RMK AO2 SLP188 T01000033
KMDW 241953Z 00000KT 10SM -RA FEW023 BKN050 OVC080 11/01 A3006 RMK AO2 RAB41 SLP181 P0000 T01060011
KMDW 242053Z 00000KT 10SM -RA SCT045 OVC060 09/03 A3006 RMK AO2 SLP183 P0002 60002 T00940033 55012
KMDW 242153Z 00000KT 8SM -RA OVC060 09/04 A3006 RMK AO2 SLP182 P0008 T00890044
KMDW 242253Z 05009KT 7SM -RA BKN035 OVC046 08/06 A3006 RMK AO2 SLP183 P0000 T00780056
KMDW 242353Z 02014KT 9SM BKN015 OVC032 06/03 A3008 RMK AO2 RAE07 SLP191 P0000 60010 T00610033 10106 20061 53007
KMDW 250053Z 03014KT 9SM BKN018 OVC032 04/02 A3010 RMK AO2 SLP201 T00390017
KMDW 250153Z 03015KT 10SM -RA BKN009 OVC024 03/01 A3013 RMK AO2 RAB19 SLP210 P0000 T00280011



Page loaded:  02:09 UTC  |   07:09 PM Pacific  |   08:09 PM Mountain  |   09:09 PM Central  |   10:09 PM Eastern

 

ADVISORIES

FORECASTS

FORECASTS

OBSERVATIONS

USER TOOLS

ABOUT US